Time;durP1;ratioP1;P1;durP2;ratioP2;P2;SDS_P1;SDS_P2;PMS_P1;PMS_P2;Temp;Humidity;BMP_temperature;BMP_pressure;BME280_temperature;BME280_humidity;BME280_pressure;Samples;Min_cycle;Max_cycle;Signal;HPM_P1;HPM_P2
2022/01/17 00:02:23;;;;;;;;;;;5.10;99.90;;;;;;4911124;29;19974;-87
2022/01/17 00:04:49;;;;;;;;;;;5.10;99.90;;;;;;4919468;29;19931;-86
2022/01/17 00:07:16;;;;;;;;;;;5.10;99.90;;;;;;4852561;29;1914053;-86
2022/01/17 00:09:43;;;;;;;;;;;5.20;99.90;;;;;;4900952;29;19927;-86
2022/01/17 00:12:11;;;;;;;;;;;5.40;99.90;;;;;;4900684;29;20011;-87
2022/01/17 00:14:41;;;;;;;;;;;5.40;99.90;;;;;;4900873;29;19927;-86
2022/01/17 00:17:24;;;;;;;;;;;5.50;99.90;;;;;;4901157;29;19928;-87
2022/01/17 00:19:54;;;;;;;;;;;5.50;99.90;;;;;;4903062;29;19935;-87
2022/01/17 00:22:21;;;;;;;;;;;5.40;99.90;;;;;;4919841;29;20049;-87
2022/01/17 00:24:49;;;;;;;;;;;5.50;99.90;;;;;;4920401;29;19931;-86
2022/01/17 00:27:16;;;;;;;;;;;5.50;99.90;;;;;;4919969;29;19927;-86
2022/01/17 00:29:43;;;;;;;;;;;5.50;99.90;;;;;;4908452;29;19927;-87
2022/01/17 00:32:11;;;;;;;;;;;5.50;99.90;;;;;;4920045;29;19986;-87
2022/01/17 00:34:38;;;;;;;;;;;5.50;99.90;;;;;;4919429;29;19974;-86
2022/01/17 00:37:04;;;;;;;;;;;5.50;99.90;;;;;;4919762;29;19927;-86
2022/01/17 00:39:31;;;;;;;;;;;5.60;99.90;;;;;;4905289;29;19928;-87
2022/01/17 00:41:58;;;;;;;;;;;5.50;99.90;;;;;;4906546;29;19988;-86
2022/01/17 00:44:24;;;;;;;;;;;5.50;99.90;;;;;;4919697;29;19927;-86
2022/01/17 00:46:52;;;;;;;;;;;5.50;99.90;;;;;;4919686;29;19983;-87
2022/01/17 00:49:20;;;;;;;;;;;4.00;99.90;;;;;;4906766;29;20375;-87
2022/01/17 00:51:47;;;;;;;;;;;5.60;99.90;;;;;;4909710;29;20381;-86
2022/01/17 00:54:14;;;;;;;;;;;5.60;99.90;;;;;;4911261;29;20401;-86
2022/01/17 00:56:41;;;;;;;;;;;5.70;99.90;;;;;;4900663;29;19932;-86
2022/01/17 00:59:07;;;;;;;;;;;5.80;99.90;;;;;;4910369;29;19927;-86
2022/01/17 01:01:34;;;;;;;;;;;5.80;99.90;;;;;;4906033;29;19991;-87
2022/01/17 01:04:01;;;;;;;;;;;5.90;99.90;;;;;;4919069;29;19927;-86
2022/01/17 01:06:30;;;;;;;;;;;6.00;99.90;;;;;;4918566;29;19959;-85
2022/01/17 01:08:57;;;;;;;;;;;6.00;99.90;;;;;;4909961;29;19928;-87
2022/01/17 01:11:23;;;;;;;;;;;6.00;99.90;;;;;;4916413;29;19927;-87
2022/01/17 01:13:50;;;;;;;;;;;6.10;99.90;;;;;;4918491;29;19931;-86
2022/01/17 01:16:31;;;;;;;;;;;6.20;99.90;;;;;;4918634;29;19927;-86
2022/01/17 01:27:52;;;;;;;;;;;6.40;99.90;;;;;;4918252;29;20070;-86
2022/01/17 01:30:21;;;;;;;;;;;6.40;99.90;;;;;;4909427;29;19928;-86
2022/01/17 01:32:51;;;;;;;;;;;6.50;99.90;;;;;;4900109;29;19927;-86
2022/01/17 01:35:21;;;;;;;;;;;6.40;99.90;;;;;;4899642;29;19927;-86
2022/01/17 01:37:49;;;;;;;;;;;6.40;99.90;;;;;;4900164;29;19928;-86
2022/01/17 01:40:17;;;;;;;;;;;6.40;99.90;;;;;;4917936;29;20298;-85
2022/01/17 01:42:44;;;;;;;;;;;6.40;99.90;;;;;;4917013;29;19935;-86
2022/01/17 01:45:12;;;;;;;;;;;6.40;99.90;;;;;;4918805;29;19931;-86
2022/01/17 01:47:39;;;;;;;;;;;6.40;99.90;;;;;;4918993;29;19927;-86
2022/01/17 01:50:07;;;;;;;;;;;6.50;99.90;;;;;;4917896;29;19966;-86
2022/01/17 01:52:34;;;;;;;;;;;6.50;99.90;;;;;;4908378;29;20391;-86
2022/01/17 01:55:02;;;;;;;;;;;6.60;99.90;;;;;;4899836;29;20339;-86
2022/01/17 01:57:29;;;;;;;;;;;6.50;99.90;;;;;;4899733;29;19932;-85
2022/01/17 01:59:56;;;;;;;;;;;5.50;99.90;;;;;;4907479;29;19984;-86
2022/01/17 02:02:23;;;;;;;;;;;6.80;99.90;;;;;;4911412;29;19927;-86
2022/01/17 02:04:50;;;;;;;;;;;6.70;99.90;;;;;;4917486;29;20402;-86
2022/01/17 02:07:17;;;;;;;;;;;6.70;99.90;;;;;;4916932;29;20015;-85
2022/01/17 02:09:43;;;;;;;;;;;6.70;99.90;;;;;;4917393;29;20388;-85
2022/01/17 02:12:13;;;;;;;;;;;6.70;99.90;;;;;;4918113;29;20342;-85
2022/01/17 02:14:39;;;;;;;;;;;6.60;99.90;;;;;;4918385;29;19959;-86
2022/01/17 02:17:06;;;;;;;;;;;6.60;99.90;;;;;;4917526;29;19978;-86
2022/01/17 02:19:34;;;;;;;;;;;6.60;99.90;;;;;;4907429;29;19927;-86
2022/01/17 02:22:04;;;;;;;;;;;6.60;99.90;;;;;;4899583;29;19928;-86
2022/01/17 02:24:32;;;;;;;;;;;6.50;99.90;;;;;;4907785;29;19927;-85
2022/01/17 02:26:59;;;;;;;;;;;6.70;99.90;;;;;;4918207;29;19999;-85
2022/01/17 02:29:26;;;;;;;;;;;6.80;99.90;;;;;;4900694;29;19927;-86
2022/01/17 02:31:53;;;;;;;;;;;6.80;99.90;;;;;;4899071;29;19981;-85
2022/01/17 02:34:19;;;;;;;;;;;6.80;99.90;;;;;;4908055;29;19971;-85
2022/01/17 02:36:46;;;;;;;;;;;6.80;99.90;;;;;;4918292;29;19931;-86
2022/01/17 02:39:18;;;;;;;;;;;6.70;99.90;;;;;;4902085;29;20306;-86
2022/01/17 02:41:49;;;;;;;;;;;6.70;99.90;;;;;;4909450;29;19927;-86
2022/01/17 02:44:15;;;;;;;;;;;6.60;99.90;;;;;;4917757;29;19927;-86
2022/01/17 02:46:42;;;;;;;;;;;6.60;99.90;;;;;;4917941;29;19934;-86
2022/01/17 02:49:10;;;;;;;;;;;6.60;99.90;;;;;;4911845;29;19932;-85
2022/01/17 02:51:37;;;;;;;;;;;6.60;99.90;;;;;;4900072;29;19934;-85
2022/01/17 02:54:04;;;;;;;;;;;6.60;99.90;;;;;;4917773;29;20350;-85
2022/01/17 02:56:33;;;;;;;;;;;6.60;99.90;;;;;;4917708;29;20426;-85
2022/01/17 02:59:00;;;;;;;;;;;6.50;99.90;;;;;;4904691;29;19927;-86
2022/01/17 03:01:27;;;;;;;;;;;6.50;99.90;;;;;;4910927;29;19973;-86
2022/01/17 03:03:55;;;;;;;;;;;6.50;99.90;;;;;;4917730;29;19931;-85
2022/01/17 03:06:21;;;;;;;;;;;6.50;99.90;;;;;;4917965;29;19963;-85
2022/01/17 03:08:50;;;;;;;;;;;6.50;99.90;;;;;;4907088;29;20450;-86
2022/01/17 03:11:18;;;;;;;;;;;6.50;99.90;;;;;;4916032;29;20364;-86
2022/01/17 03:13:48;;;;;;;;;;;6.50;99.90;;;;;;4917666;29;19974;-86
2022/01/17 03:16:16;;;;;;;;;;;6.60;99.90;;;;;;4917662;29;19975;-86
2022/01/17 03:18:44;;;;;;;;;;;6.60;99.90;;;;;;4916897;29;20351;-86
2022/01/17 03:21:11;;;;;;;;;;;6.60;99.90;;;;;;4916149;29;20439;-86
2022/01/17 03:23:39;;;;;;;;;;;6.50;99.90;;;;;;4917724;29;19998;-86
2022/01/17 03:26:06;;;;;;;;;;;6.50;99.90;;;;;;4917838;29;19963;-86
2022/01/17 03:28:33;;;;;;;;;;;6.50;99.90;;;;;;4916931;29;19978;-86
2022/01/17 03:31:01;;;;;;;;;;;6.50;99.90;;;;;;4916993;29;19991;-86
2022/01/17 03:33:28;;;;;;;;;;;6.50;99.90;;;;;;4898926;29;19927;-86
2022/01/17 03:35:54;;;;;;;;;;;6.40;99.90;;;;;;4900888;29;19972;-86
2022/01/17 03:38:22;;;;;;;;;;;6.40;99.90;;;;;;4907389;29;20394;-86
2022/01/17 03:40:51;;;;;;;;;;;6.40;99.90;;;;;;4920628;29;19979;-86
2022/01/17 03:43:18;;;;;;;;;;;6.40;99.90;;;;;;4920854;29;19931;-87
2022/01/17 03:45:46;;;;;;;;;;;6.30;99.90;;;;;;4919705;29;20275;-87
2022/01/17 03:48:15;;;;;;;;;;;6.10;99.90;;;;;;4915583;29;19983;-86
2022/01/17 03:50:42;;;;;;;;;;;6.10;99.90;;;;;;4901475;29;19982;-86
2022/01/17 03:53:08;;;;;;;;;;;6.10;99.90;;;;;;4901222;29;19975;-86
2022/01/17 03:55:35;;;;;;;;;;;6.10;99.90;;;;;;4901317;29;19991;-87
2022/01/17 03:58:02;;;;;;;;;;;6.10;99.90;;;;;;4904803;29;20462;-86
2022/01/17 04:00:30;;;;;;;;;;;6.10;99.90;;;;;;4918814;29;19927;-86
2022/01/17 04:02:57;;;;;;;;;;;6.10;99.90;;;;;;4920691;29;19927;-86
2022/01/17 04:05:25;;;;;;;;;;;6.00;99.90;;;;;;4920255;29;19969;-86
2022/01/17 04:07:52;;;;;;;;;;;5.90;99.90;;;;;;4918140;29;19931;-86
2022/01/17 04:10:19;;;;;;;;;;;5.80;99.90;;;;;;4901666;29;19927;-86
2022/01/17 04:12:46;;;;;;;;;;;5.70;99.90;;;;;;4901798;29;20042;-86
2022/01/17 04:15:13;;;;;;;;;;;5.70;99.90;;;;;;4906739;29;19927;-86
2022/01/17 04:17:41;;;;;;;;;;;5.80;99.90;;;;;;4907029;29;20442;-85
2022/01/17 04:20:12;;;;;;;;;;;5.70;99.90;;;;;;4920079;29;19927;-86
2022/01/17 04:22:43;;;;;;;;;;;5.70;99.90;;;;;;4920132;29;19949;-85
2022/01/17 04:25:11;;;;;;;;;;;5.70;99.90;;;;;;4920400;29;19927;-86
2022/01/17 04:27:38;;;;;;;;;;;5.60;99.90;;;;;;4919895;29;20378;-86
2022/01/17 04:30:05;;;;;;;;;;;5.50;99.90;;;;;;4901417;29;19976;-86
2022/01/17 04:32:32;;;;;;;;;;;5.50;99.90;;;;;;4900853;29;19978;-86
2022/01/17 04:34:59;;;;;;;;;;;5.40;99.90;;;;;;4900703;29;19935;-86
2022/01/17 04:37:26;;;;;;;;;;;5.30;99.90;;;;;;4900530;29;19928;-86
2022/01/17 04:39:54;;;;;;;;;;;5.30;99.90;;;;;;4916889;29;19962;-86
2022/01/17 04:42:27;;;;;;;;;;;5.30;99.90;;;;;;4919471;29;19934;-86
2022/01/17 04:45:11;;;;;;;;;;;5.40;99.90;;;;;;4919786;29;19927;-86
2022/01/17 04:47:38;;;;;;;;;;;5.40;99.90;;;;;;4919086;29;19962;-86
2022/01/17 04:50:06;;;;;;;;;;;5.40;99.90;;;;;;4902154;29;19932;-85
2022/01/17 04:52:34;;;;;;;;;;;5.50;99.90;;;;;;4915209;29;20515;-86
2022/01/17 04:55:02;;;;;;;;;;;5.50;99.90;;;;;;4919233;29;19935;-86
2022/01/17 04:57:29;;;;;;;;;;;5.60;99.90;;;;;;4919613;29;19931;-86
2022/01/17 04:59:56;;;;;;;;;;;5.50;99.90;;;;;;4903972;29;19976;-86
2022/01/17 05:02:23;;;;;;;;;;;5.40;99.90;;;;;;4901766;29;19931;-86
2022/01/17 05:04:51;;;;;;;;;;;5.20;99.90;;;;;;4919513;29;20334;-85
2022/01/17 05:07:17;;;;;;;;;;;5.00;99.90;;;;;;4919387;29;19931;-85
2022/01/17 05:09:45;;;;;;;;;;;4.90;99.90;;;;;;4904776;29;20395;-85
2022/01/17 05:12:13;;;;;;;;;;;4.80;99.90;;;;;;4900105;29;19934;-86
2022/01/17 05:14:43;;;;;;;;;;;4.70;99.90;;;;;;4901876;29;19973;-86
2022/01/17 05:17:23;;;;;;;;;;;4.70;99.90;;;;;;4918990;29;20390;-86
2022/01/17 05:19:54;;;;;;;;;;;4.60;99.90;;;;;;4918583;29;19927;-86
2022/01/17 05:22:22;;;;;;;;;;;4.60;99.90;;;;;;4912589;29;19932;-85
2022/01/17 05:24:49;;;;;;;;;;;4.60;99.90;;;;;;4900049;29;20386;-86
2022/01/17 05:27:17;;;;;;;;;;;4.70;99.90;;;;;;4900413;29;19975;-86
2022/01/17 05:29:44;;;;;;;;;;;4.50;99.90;;;;;;4900338;29;19979;-85
2022/01/17 05:32:10;;;;;;;;;;;4.40;99.90;;;;;;4906248;29;19959;-86
2022/01/17 05:34:40;;;;;;;;;;;4.30;99.90;;;;;;4918907;29;20359;-86
2022/01/17 05:37:07;;;;;;;;;;;4.20;99.90;;;;;;4919027;29;19933;-86
2022/01/17 05:39:34;;;;;;;;;;;4.20;99.90;;;;;;4906984;29;19928;-86
2022/01/17 05:42:04;;;;;;;;;;;4.20;99.90;;;;;;4899735;29;19928;-86
2022/01/17 05:44:32;;;;;;;;;;;4.00;99.90;;;;;;4907266;29;19962;-86
2022/01/17 05:47:00;;;;;;;;;;;4.00;99.90;;;;;;4916853;29;19974;-86
2022/01/17 05:49:26;;;;;;;;;;;3.80;99.90;;;;;;4907764;29;20451;-86
2022/01/17 05:51:53;;;;;;;;;;;3.80;99.90;;;;;;4899537;29;19932;-86
2022/01/17 05:54:20;;;;;;;;;;;3.80;99.90;;;;;;4903376;29;19931;-86
2022/01/17 05:56:47;;;;;;;;;;;4.30;99.90;;;;;;4899820;29;19946;-86
2022/01/17 05:59:13;;;;;;;;;;;4.10;99.90;;;;;;4899640;29;19931;-86
2022/01/17 06:01:44;;;;;;;;;;;4.30;99.90;;;;;;4900131;29;19927;-86
2022/01/17 06:04:11;;;;;;;;;;;4.20;99.90;;;;;;4899801;29;20026;-86
2022/01/17 06:06:37;;;;;;;;;;;4.10;99.90;;;;;;4902413;29;19931;-86
2022/01/17 06:09:05;;;;;;;;;;;4.00;99.90;;;;;;4913875;29;19950;-86
2022/01/17 06:11:33;;;;;;;;;;;3.90;99.90;;;;;;4917960;29;19927;-86
2022/01/17 06:14:00;;;;;;;;;;;3.80;99.90;;;;;;4918035;29;20038;-86
2022/01/17 06:16:30;;;;;;;;;;;3.80;99.90;;;;;;4917822;29;20040;-86
2022/01/17 06:18:58;;;;;;;;;;;3.70;99.90;;;;;;4913820;29;20331;-86
2022/01/17 06:21:25;;;;;;;;;;;3.70;99.90;;;;;;4900223;29;19935;-86
2022/01/17 06:23:52;;;;;;;;;;;3.60;99.90;;;;;;4916191;29;19983;-86
2022/01/17 06:26:19;;;;;;;;;;;3.60;99.90;;;;;;4915144;29;20336;-86
2022/01/17 06:28:46;;;;;;;;;;;3.50;99.90;;;;;;4904521;29;20430;-87
2022/01/17 06:31:13;;;;;;;;;;;3.70;99.90;;;;;;4899897;29;20049;-86
2022/01/17 06:33:39;;;;;;;;;;;3.70;99.90;;;;;;4899286;29;19928;-86
2022/01/17 06:36:08;;;;;;;;;;;3.50;99.90;;;;;;4898959;29;19927;-86
2022/01/17 06:38:34;;;;;;;;;;;3.50;99.90;;;;;;4905269;29;19985;-85
2022/01/17 06:41:01;;;;;;;;;;;3.40;99.90;;;;;;4899488;29;19999;-86
2022/01/17 06:43:28;;;;;;;;;;;3.40;99.90;;;;;;4910740;29;19927;-86
2022/01/17 06:45:55;;;;;;;;;;;3.30;99.90;;;;;;4917919;29;20346;-86
2022/01/17 06:48:22;;;;;;;;;;;3.30;99.90;;;;;;4913209;29;19975;-86
2022/01/17 06:50:48;;;;;;;;;;;2.70;99.90;;;;;;4898930;29;19928;-86
2022/01/17 06:53:17;;;;;;;;;;;4.60;99.90;;;;;;4917863;29;19930;-86
2022/01/17 06:55:43;;;;;;;;;;;3.50;99.90;;;;;;4917641;29;19927;-86
2022/01/17 06:58:10;;;;;;;;;;;3.70;99.90;;;;;;4917839;29;19934;-86
2022/01/17 07:00:37;;;;;;;;;;;4.00;99.90;;;;;;4916764;29;20378;-86
2022/01/17 07:03:04;;;;;;;;;;;3.90;99.90;;;;;;4900954;29;19987;-86
2022/01/17 07:05:30;;;;;;;;;;;3.80;99.90;;;;;;4898711;29;20359;-86
2022/01/17 07:07:57;;;;;;;;;;;3.60;99.90;;;;;;4898651;29;19928;-86
2022/01/17 07:10:28;;;;;;;;;;;3.80;99.90;;;;;;4908942;29;19931;-86
2022/01/17 07:12:55;;;;;;;;;;;3.10;99.90;;;;;;4921222;29;19927;-86
2022/01/17 07:15:22;;;;;;;;;;;3.30;99.90;;;;;;4921117;29;20351;-85
2022/01/17 07:17:49;;;;;;;;;;;3.10;99.90;;;;;;4920581;29;19927;-85
2022/01/17 07:20:15;;;;;;;;;;;3.20;99.90;;;;;;4921093;29;20378;-86
2022/01/17 07:22:42;;;;;;;;;;;3.60;99.90;;;;;;4920380;29;19927;-86
2022/01/17 07:25:09;;;;;;;;;;;3.10;99.90;;;;;;4921336;29;19927;-85
2022/01/17 07:27:40;;;;;;;;;;;3.00;99.90;;;;;;4920828;29;20050;-86
2022/01/17 07:30:07;;;;;;;;;;;3.20;99.90;;;;;;4914642;29;20014;-86
2022/01/17 07:32:35;;;;;;;;;;;3.30;99.90;;;;;;4914130;29;19931;-86
2022/01/17 07:35:02;;;;;;;;;;;3.50;99.90;;;;;;4920934;29;19927;-85
2022/01/17 07:37:28;;;;;;;;;;;3.30;99.90;;;;;;4885647;29;19931;-86
2022/01/17 07:39:55;;;;;;;;;;;3.20;99.90;;;;;;4906972;29;20390;-86
2022/01/17 07:42:22;;;;;;;;;;;3.10;99.90;;;;;;4920729;29;20335;-85
2022/01/17 07:44:54;;;;;;;;;;;3.10;99.90;;;;;;4921127;29;19927;-86
2022/01/17 07:47:27;;;;;;;;;;;3.70;99.90;;;;;;4915733;29;19931;-85
2022/01/17 07:49:54;;;;;;;;;;;3.10;99.90;;;;;;4919566;29;19938;-86
2022/01/17 07:52:21;;;;;;;;;;;3.20;99.90;;;;;;4920416;29;19974;-85
2022/01/17 07:54:49;;;;;;;;;;;3.30;99.90;;;;;;4917913;29;19932;-86
2022/01/17 07:57:19;;;;;;;;;;;3.40;99.90;;;;;;4919557;29;19938;-85
2022/01/17 07:59:46;;;;;;;;;;;3.60;99.90;;;;;;4917505;29;19936;-87
2022/01/17 08:02:14;;;;;;;;;;;3.10;99.90;;;;;;4913447;29;19974;-86
2022/01/17 08:04:41;;;;;;;;;;;3.70;99.90;;;;;;4904066;29;19934;-86
2022/01/17 08:07:08;;;;;;;;;;;3.10;99.90;;;;;;4911403;29;19935;-86
2022/01/17 08:09:35;;;;;;;;;;;3.10;99.90;;;;;;4903171;29;19927;-87
2022/01/17 08:12:03;;;;;;;;;;;3.00;99.90;;;;;;4905658;29;19939;-86
2022/01/17 08:14:30;;;;;;;;;;;2.90;99.90;;;;;;4915128;29;19927;-87
2022/01/17 08:16:57;;;;;;;;;;;2.90;99.90;;;;;;4918470;29;20022;-86
2022/01/17 08:19:27;;;;;;;;;;;3.60;99.90;;;;;;4917807;29;20378;-85
2022/01/17 08:21:54;;;;;;;;;;;2.90;99.90;;;;;;4887872;29;20461;-86
2022/01/17 08:24:21;;;;;;;;;;;3.30;99.90;;;;;;4875708;29;21226;-86
2022/01/17 08:26:50;;;;;;;;;;;3.60;99.90;;;;;;4872219;29;19942;-88
2022/01/17 08:29:17;;;;;;;;;;;3.90;99.90;;;;;;4879657;29;19927;-87
2022/01/17 08:31:47;;;;;;;;;;;3.10;99.90;;;;;;4880017;29;20181;-86
2022/01/17 08:34:14;;;;;;;;;;;3.20;99.90;;;;;;4890846;29;20394;-85
2022/01/17 08:36:42;;;;;;;;;;;3.30;99.90;;;;;;4894019;29;19927;-86
2022/01/17 08:39:10;;;;;;;;;;;3.40;99.90;;;;;;4907328;29;19949;-86
2022/01/17 08:41:37;;;;;;;;;;;3.50;99.90;;;;;;4874343;29;19991;-86
2022/01/17 08:44:05;;;;;;;;;;;3.30;99.90;;;;;;4889468;29;19939;-86
2022/01/17 08:46:32;;;;;;;;;;;3.80;99.90;;;;;;4912752;29;19974;-91
2022/01/17 08:48:58;;;;;;;;;;;3.30;99.90;;;;;;4911618;29;19935;-88
2022/01/17 08:51:25;;;;;;;;;;;3.40;99.90;;;;;;4915600;29;20635;-88
2022/01/17 08:53:55;;;;;;;;;;;3.60;99.90;;;;;;4917318;29;19927;-87
2022/01/17 08:56:22;;;;;;;;;;;4.00;99.90;;;;;;4900862;29;19939;-88
2022/01/17 08:58:51;;;;;;;;;;;3.70;99.90;;;;;;4906569;29;20459;-88
2022/01/17 09:01:18;;;;;;;;;;;3.70;99.90;;;;;;4901061;29;20398;-87
2022/01/17 09:03:50;;;;;;;;;;;4.00;99.90;;;;;;4899299;29;19927;-87
2022/01/17 09:06:19;;;;;;;;;;;4.10;99.90;;;;;;4908263;29;19982;-88
2022/01/17 09:08:48;;;;;;;;;;;4.10;99.90;;;;;;4916497;29;20163;-89
2022/01/17 09:11:19;;;;;;;;;;;4.50;99.90;;;;;;4910110;29;19974;-87
2022/01/17 09:13:47;;;;;;;;;;;4.50;99.90;;;;;;4911260;29;19927;-88
2022/01/17 09:16:17;;;;;;;;;;;4.30;99.90;;;;;;4910107;29;20026;-89
2022/01/17 09:18:44;;;;;;;;;;;4.90;99.90;;;;;;4904565;29;19950;-88
2022/01/17 09:21:11;;;;;;;;;;;4.60;99.90;;;;;;4903646;29;19947;-88
2022/01/17 09:23:41;;;;;;;;;;;4.40;99.90;;;;;;4900938;29;19938;-89
2022/01/17 09:26:09;;;;;;;;;;;4.70;99.90;;;;;;4911494;29;19942;-88
2022/01/17 09:28:38;;;;;;;;;;;4.80;99.90;;;;;;4902099;29;19935;-87
2022/01/17 09:31:04;;;;;;;;;;;5.20;99.90;;;;;;4904000;29;19931;-88
2022/01/17 09:33:34;;;;;;;;;;;4.70;99.90;;;;;;4917522;29;19927;-87
2022/01/17 09:36:01;;;;;;;;;;;5.20;99.90;;;;;;4913973;29;19931;-86
2022/01/17 09:38:29;;;;;;;;;;;5.20;99.90;;;;;;4909730;29;19931;-87
2022/01/17 09:40:56;;;;;;;;;;;5.40;99.90;;;;;;4903711;29;19955;-87
2022/01/17 09:43:23;;;;;;;;;;;5.90;99.90;;;;;;4903896;29;19935;-87
2022/01/17 09:45:51;;;;;;;;;;;4.90;99.90;;;;;;4906257;29;19927;-89
2022/01/17 09:48:20;;;;;;;;;;;5.10;99.90;;;;;;4900903;29;19970;-89
2022/01/17 09:51:00;;;;;;;;;;;5.50;99.90;;;;;;4910917;29;19942;-88
2022/01/17 09:53:28;;;;;;;;;;;4.80;99.90;;;;;;4914955;29;19938;-88
2022/01/17 09:55:58;;;;;;;;;;;4.80;99.90;;;;;;4903536;29;19942;-87
2022/01/17 09:58:26;;;;;;;;;;;4.70;99.90;;;;;;4906618;29;20020;-88
2022/01/17 10:00:54;;;;;;;;;;;5.40;99.90;;;;;;4903205;29;20022;-88
2022/01/17 10:03:23;;;;;;;;;;;5.30;99.90;;;;;;4913804;29;19927;-88
2022/01/17 10:05:51;;;;;;;;;;;5.40;99.90;;;;;;4915258;29;20382;-88
2022/01/17 10:08:20;;;;;;;;;;;5.50;99.90;;;;;;4913776;29;19994;-86
2022/01/17 10:11:00;;;;;;;;;;;5.50;99.90;;;;;;4910885;29;19931;-88
2022/01/17 10:13:31;;;;;;;;;;;5.50;99.90;;;;;;4900346;29;19935;-88
2022/01/17 10:16:01;;;;;;;;;;;5.60;99.90;;;;;;4906393;29;19939;-88
2022/01/17 10:18:32;;;;;;;;;;;5.70;99.90;;;;;;4894490;29;19931;-88
2022/01/17 10:21:07;;;;;;;;;;;5.80;99.90;;;;;;4907925;29;19942;-88
2022/01/17 10:24:00;;;;;;;;;;;5.60;99.90;;;;;;4899307;29;19935;-88
2022/01/17 10:34:57;;;;;;;;;;;6.10;99.90;;;;;;4910189;29;19934;-87
2022/01/17 10:37:25;;;;;;;;;;;6.20;99.90;;;;;;4908500;29;20378;-87
2022/01/17 10:39:53;;;;;;;;;;;6.20;99.90;;;;;;4910067;29;19935;-87
2022/01/17 10:42:24;;;;;;;;;;;6.40;99.90;;;;;;4912213;29;20049;-88
2022/01/17 10:44:51;;;;;;;;;;;6.40;99.90;;;;;;4909659;29;19934;-86
2022/01/17 10:47:26;;;;;;;;;;;6.40;99.90;;;;;;4911271;29;20461;-87
2022/01/17 10:49:54;;;;;;;;;;;7.70;99.90;;;;;;4915706;29;19991;-87
2022/01/17 10:52:31;;;;;;;;;;;6.60;99.90;;;;;;4896769;29;19927;-87
2022/01/17 10:54:59;;;;;;;;;;;6.80;99.90;;;;;;4915008;29;19947;-86
2022/01/17 10:57:25;;;;;;;;;;;6.80;99.90;;;;;;4896737;29;19982;-87
2022/01/17 10:59:53;;;;;;;;;;;6.90;99.90;;;;;;4913719;29;19927;-86
2022/01/17 11:02:19;;;;;;;;;;;6.80;99.90;;;;;;4915238;29;20310;-87
2022/01/17 11:04:50;;;;;;;;;;;6.90;99.90;;;;;;4896377;29;21327;-88
2022/01/17 11:07:18;;;;;;;;;;;7.50;99.90;;;;;;4905698;29;20379;-86
2022/01/17 11:09:49;;;;;;;;;;;7.00;99.90;;;;;;4910948;29;20010;-87
2022/01/17 11:12:17;;;;;;;;;;;7.00;99.90;;;;;;4914157;29;20312;-87
2022/01/17 11:14:45;;;;;;;;;;;7.30;99.90;;;;;;4905700;29;19927;-87
2022/01/17 11:17:15;;;;;;;;;;;7.10;99.90;;;;;;4911389;29;19938;-87
2022/01/17 11:22:28;;;;;;;;;;;7.10;99.90;;;;;;4912971;29;19933;-86
2022/01/17 11:24:56;;;;;;;;;;;7.20;99.90;;;;;;4909787;29;19960;-91
2022/01/17 11:27:23;;;;;;;;;;;7.30;99.90;;;;;;4911331;29;19934;-88
2022/01/17 11:29:53;;;;;;;;;;;7.70;99.90;;;;;;4913391;29;19931;-87
2022/01/17 11:32:22;;;;;;;;;;;7.80;99.90;;;;;;4912716;29;19934;-86
2022/01/17 11:34:49;;;;;;;;;;;7.30;99.90;;;;;;4912539;29;20021;-86
2022/01/17 11:37:16;;;;;;;;;;;7.20;99.90;;;;;;4913711;29;19942;-86
2022/01/17 11:39:49;;;;;;;;;;;7.30;99.90;;;;;;4912247;29;20398;-86
2022/01/17 11:42:29;;;;;;;;;;;7.30;99.90;;;;;;4914619;29;20104;-86
2022/01/17 11:44:56;;;;;;;;;;;7.30;99.90;;;;;;4897358;29;19994;-86
2022/01/17 11:47:37;;;;;;;;;;;7.70;99.90;;;;;;4914258;29;20379;-86
2022/01/17 11:50:19;;;;;;;;;;;7.60;99.90;;;;;;4905590;29;19974;-85
2022/01/17 11:52:50;;;;;;;;;;;7.70;99.90;;;;;;4915498;29;19982;-87
2022/01/17 11:55:42;;;;;;;;;;;7.60;99.90;;;;;;4917504;29;19942;-88
2022/01/17 11:58:19;;;;;;;;;;;8.80;99.90;;;;;;4913362;29;19927;-86
2022/01/17 12:00:46;;;;;;;;;;;7.90;99.90;;;;;;4899307;29;19987;-86
2022/01/17 12:03:17;;;;;;;;;;;7.50;99.90;;;;;;4913603;29;19927;-87
2022/01/17 12:05:44;;;;;;;;;;;7.50;99.90;;;;;;4913738;29;20400;-86
2022/01/17 12:08:18;;;;;;;;;;;7.70;99.90;;;;;;4916031;29;19990;-87
2022/01/17 12:10:58;;;;;;;;;;;7.70;99.90;;;;;;4915145;29;20342;-87
2022/01/17 12:13:38;;;;;;;;;;;7.70;99.90;;;;;;4911993;29;19974;-87
2022/01/17 12:16:11;;;;;;;;;;;7.70;99.90;;;;;;4910580;29;19935;-87
2022/01/17 12:18:40;;;;;;;;;;;7.70;99.90;;;;;;4920891;29;20326;-87
2022/01/17 12:21:34;;;;;;;;;;;8.00;99.90;;;;;;4912536;29;19941;-86
2022/01/17 12:24:21;;;;;;;;;;;8.40;99.90;;;;;;4912118;29;19942;-87
2022/01/17 12:27:03;;;;;;;;;;;8.20;99.90;;;;;;4903194;29;19955;-88
2022/01/17 12:29:40;;;;;;;;;;;8.20;99.90;;;;;;4912881;29;19935;-87
2022/01/17 12:32:11;;;;;;;;;;;8.40;99.90;;;;;;4912921;29;20370;-87
2022/01/17 12:34:41;;;;;;;;;;;8.70;99.90;;;;;;4912360;29;19927;-87
2022/01/17 12:37:24;;;;;;;;;;;8.10;99.90;;;;;;4912849;29;19975;-86
2022/01/17 12:39:52;;;;;;;;;;;8.00;99.90;;;;;;4911326;29;19927;-86
2022/01/17 12:42:22;;;;;;;;;;;8.00;99.90;;;;;;4913809;29;20018;-86
2022/01/17 12:44:50;;;;;;;;;;;9.10;99.90;;;;;;4902367;29;19970;-86
2022/01/17 12:47:17;;;;;;;;;;;8.30;99.90;;;;;;4912791;29;19935;-85
2022/01/17 12:49:44;;;;;;;;;;;8.60;99.90;;;;;;4905229;29;20394;-87
2022/01/17 12:52:12;;;;;;;;;;;8.50;99.90;;;;;;4898378;29;20385;-86
2022/01/17 12:54:39;;;;;;;;;;;8.80;99.90;;;;;;4914898;29;21746;-86
2022/01/17 12:57:06;;;;;;;;;;;8.40;99.90;;;;;;4914782;29;19938;-87
2022/01/17 12:59:34;;;;;;;;;;;6.70;99.90;;;;;;4909805;29;20279;-87
2022/01/17 13:02:02;;;;;;;;;;;8.60;99.90;;;;;;4915385;29;19927;-87
2022/01/17 13:04:34;;;;;;;;;;;8.40;99.90;;;;;;4912879;29;19934;-87
2022/01/17 13:07:02;;;;;;;;;;;8.70;99.90;;;;;;4903940;29;19947;-87
2022/01/17 13:09:36;;;;;;;;;;;8.60;99.90;;;;;;4884841;29;19936;-88
2022/01/17 13:12:07;;;;;;;;;;;9.70;99.90;;;;;;4852504;29;19957;-86
2022/01/17 13:14:36;;;;;;;;;;;8.30;99.90;;;;;;4895225;29;19928;-86
2022/01/17 13:17:07;;;;;;;;;;;8.40;99.90;;;;;;4888611;29;20382;-87
2022/01/17 13:19:35;;;;;;;;;;;8.70;99.90;;;;;;4896228;29;20298;-87
2022/01/17 13:22:05;;;;;;;;;;;8.30;99.90;;;;;;4896354;29;20286;-88
2022/01/17 13:24:36;;;;;;;;;;;8.60;99.90;;;;;;4895759;29;19935;-87
2022/01/17 13:27:09;;;;;;;;;;;8.80;99.90;;;;;;4891831;29;19928;-87
2022/01/17 13:29:41;;;;;;;;;;;8.10;99.90;;;;;;4892889;29;20029;-87
2022/01/17 13:32:11;;;;;;;;;;;8.50;99.90;;;;;;4890887;29;19928;-88
2022/01/17 13:34:38;;;;;;;;;;;8.60;99.90;;;;;;4897825;29;19935;-87
2022/01/17 13:37:06;;;;;;;;;;;8.40;99.90;;;;;;4893927;29;19938;-88
2022/01/17 13:39:33;;;;;;;;;;;8.50;99.90;;;;;;4893096;29;19928;-87
2022/01/17 13:42:00;;;;;;;;;;;8.10;99.90;;;;;;4895562;29;19935;-89
2022/01/17 13:44:28;;;;;;;;;;;8.00;99.90;;;;;;4879859;29;19943;-87
2022/01/17 13:46:57;;;;;;;;;;;7.90;99.90;;;;;;4883314;29;20389;-88
2022/01/17 13:49:24;;;;;;;;;;;8.20;99.90;;;;;;4880380;29;19932;-85
2022/01/17 13:51:51;;;;;;;;;;;8.20;99.90;;;;;;4858937;29;19931;-86
2022/01/17 13:54:28;;;;;;;;;;;8.10;99.90;;;;;;4856929;29;20007;-85
2022/01/17 13:56:55;;;;;;;;;;;8.00;99.90;;;;;;4854677;29;20018;-84
2022/01/17 13:59:23;;;;;;;;;;;7.80;99.90;;;;;;4841620;29;19967;-84
2022/01/17 14:01:50;;;;;;;;;;;7.80;99.90;;;;;;4851356;29;19928;-85
2022/01/17 14:04:22;;;;;;;;;;;7.80;99.90;;;;;;4852055;29;19935;-85
2022/01/17 14:06:48;;;;;;;;;;;7.90;99.90;;;;;;4871185;29;20398;-86
2022/01/17 14:09:15;;;;;;;;;;;8.00;99.90;;;;;;4898095;29;19931;-85
2022/01/17 14:11:50;;;;;;;;;;;8.10;99.90;;;;;;4898350;29;19938;-86
2022/01/17 14:14:18;;;;;;;;;;;8.00;99.90;;;;;;4918807;23;19946;-86
2022/01/17 14:16:45;;;;;;;;;;;8.20;99.90;;;;;;4930926;29;19959;-86
2022/01/17 14:19:16;;;;;;;;;;;8.20;99.90;;;;;;4939477;29;20021;-86
2022/01/17 14:21:45;;;;;;;;;;;8.70;99.90;;;;;;4932906;29;19935;-86
2022/01/17 14:24:19;;;;;;;;;;;8.00;99.90;;;;;;4936651;29;19946;-87
2022/01/17 14:26:50;;;;;;;;;;;8.30;99.90;;;;;;4923762;29;19935;-86
2022/01/17 14:29:18;;;;;;;;;;;8.30;99.90;;;;;;4923052;29;19971;-86
2022/01/17 14:31:46;;;;;;;;;;;8.30;99.90;;;;;;4928766;29;19971;-87
2022/01/17 14:34:14;;;;;;;;;;;8.20;99.90;;;;;;4935893;29;19935;-86
2022/01/17 14:36:41;;;;;;;;;;;8.20;99.90;;;;;;4934181;29;19931;-88
2022/01/17 14:39:10;;;;;;;;;;;8.20;99.90;;;;;;4932748;29;20297;-87
2022/01/17 14:41:40;;;;;;;;;;;8.20;99.90;;;;;;4935220;29;19934;-88
2022/01/17 14:44:08;;;;;;;;;;;6.70;99.90;;;;;;4929518;29;20378;-87
2022/01/17 14:46:35;;;;;;;;;;;8.00;99.90;;;;;;4927545;29;19935;-88
2022/01/17 14:49:02;;;;;;;;;;;8.00;99.90;;;;;;4934532;29;19931;-89
2022/01/17 14:51:31;;;;;;;;;;;6.90;99.90;;;;;;4932198;29;20354;-87
2022/01/17 14:54:05;;;;;;;;;;;8.00;99.90;;;;;;4933195;29;19930;-88
2022/01/17 15:02:17;;;;;;;;;;;8.10;99.90;;;;;;4906976;29;19935;-88
2022/01/17 15:04:45;;;;;;;;;;;7.90;99.90;;;;;;4933879;29;19933;-89
2022/01/17 15:07:14;;;;;;;;;;;7.90;99.90;;;;;;4933679;29;19994;-87